Terminal Aerodrome Forecast
Issued by NWS Atlanta, GA

Home | Current Version | Previous Version | Text Only | Print | Product List | Glossary On
Versions: 1 2 3 4 5 6 7 8 9 10 11 12 13 14 15 16 17 18 19 20 21 22 23 24 25 26 27 28 29 30 31 32 33 34 35 36 37 38 39
536
FTUS42 KFFC 160948 AAB
TAFATL
TAF AMD
KATL 160948Z 1610/1712 16004KT P6SM FEW200
     FM161300 20003KT P6SM FEW200
     FM161600 25007KT P6SM SCT120
     FM162100 30008KT P6SM BKN040 BKN100
     FM170000 32012G18KT P6SM OVC015 PROB30 1700/1706 5SM -SN BR
      BKN025
     FM170600 32012G18KT P6SM BKN040 BKN100=

USA.gov is the U.S. government's official web portal to all federal, state and local government web resources and services.